Legaspi, Philippines
Current Conditions -  °F | °C
As of 6:00 PM on Monday 22 Dec 2014 (Local Time) from RPVM Reporting Station
Broken Clouds Broken Clouds  
Wind Chill: 81°   Ceiling: 9000
Heat Index: 86°   Visibility: 6mi
Dew Point: 75°   Wind: 10mph
Humidity: 84%   Direction: 360°N
Pressure: 29.8"   Gusts: NA
Location:  13.13°N, 123.73°E
Report Text: RPVM 221000Z 36009KT 9999 FEW020 BKN090 27/24 Q1009 RMK A2980
Loading
Personal Weather Stations






























Interactive Weather Map New forecast layout! Learn more

10-Day Weather Forecast

Advertisements
Track Severe Weather on mobile